createdAt,value
2022-11-18T00:01:35.207Z,99211.41
2022-11-18T00:04:01.913Z,99214.09
2022-11-18T00:06:29.888Z,99221.78
2022-11-18T00:08:58.913Z,99224.38
2022-11-18T00:11:45.409Z,99229.50
2022-11-18T00:14:20.797Z,99230.34
2022-11-18T00:16:55.937Z,99226.81
2022-11-18T00:19:26.063Z,99240.63
2022-11-18T00:21:52.955Z,99238.06
2022-11-18T00:24:20.366Z,99235.53
2022-11-18T00:26:47.727Z,99245.81
2022-11-18T00:29:15.336Z,99247.50
2022-11-18T00:31:42.126Z,99243.16
2022-11-18T00:34:17.013Z,99249.19
2022-11-18T00:36:44.380Z,99259.56
2022-11-18T00:39:11.720Z,99257.75
2022-11-18T00:42:16.460Z,99233.31
2022-11-18T00:44:42.944Z,99263.84
2022-11-18T00:47:09.460Z,99268.13
2022-11-18T00:49:35.946Z,99269.97
2022-11-18T00:52:02.500Z,99269.13
2022-11-18T00:54:29.047Z,99277.69
2022-11-18T00:56:55.537Z,99269.22
2022-11-18T00:59:22.215Z,99292.28
2022-11-18T01:01:49.394Z,99286.25
2022-11-18T01:04:16.732Z,99292.41
2022-11-18T01:06:43.335Z,99295.78
2022-11-18T01:09:09.832Z,99308.00
2022-11-18T01:11:54.685Z,99268.13
2022-11-18T01:14:23.543Z,99304.72
2022-11-18T01:16:51.462Z,99262.44
2022-11-18T01:19:19.156Z,99310.88
2022-11-18T01:21:45.904Z,99326.28
2022-11-18T01:24:12.477Z,99297.41
2022-11-18T01:26:38.950Z,99323.69
2022-11-18T01:29:05.384Z,99330.56
2022-11-18T01:31:31.842Z,99306.13
2022-11-18T01:33:58.343Z,99325.63
2022-11-18T01:36:27.478Z,99331.59
2022-11-18T01:38:55.441Z,99320.78
2022-11-18T01:41:25.926Z,99333.47
2022-11-18T01:43:58.625Z,99331.03
2022-11-18T01:46:31.051Z,99325.28
2022-11-18T01:49:08.041Z,99330.19
2022-11-18T01:51:39.186Z,99336.44
2022-11-18T01:54:11.993Z,99295.78
2022-11-18T01:56:49.231Z,99349.34
2022-11-18T01:59:20.365Z,99353.69
2022-11-18T02:01:48.170Z,99357.19
2022-11-18T02:04:15.159Z,99346.19
2022-11-18T02:06:47.054Z,99351.31
2022-11-18T02:09:15.571Z,99360.78
2022-11-18T02:11:54.206Z,99356.63
2022-11-18T02:14:24.927Z,99330.59
2022-11-18T02:17:02.221Z,99373.94
2022-11-18T02:19:46.858Z,99372.28
2022-11-18T02:22:40.705Z,99371.47
2022-11-18T02:25:15.963Z,99370.84
2022-11-18T02:28:00.747Z,99375.97
2022-11-18T02:30:32.629Z,99353.38
2022-11-18T02:33:08.586Z,99384.78
2022-11-18T02:35:43.488Z,99381.56
2022-11-18T02:38:34.697Z,99387.59
2022-11-18T02:41:08.505Z,99392.88
2022-11-18T02:43:41.968Z,99401.56
2022-11-18T02:46:12.967Z,99397.38
2022-11-18T02:48:45.212Z,99403.34
2022-11-18T02:51:15.650Z,99405.25
2022-11-18T02:53:43.335Z,99384.06
2022-11-18T02:56:10.556Z,99402.97
2022-11-18T02:58:37.190Z,99409.91
2022-11-18T03:01:03.811Z,99417.63
2022-11-18T03:03:31.739Z,99422.81
2022-11-18T03:06:19.532Z,99433.31
2022-11-18T03:08:52.294Z,99418.34
2022-11-18T03:11:23.982Z,99435.28
2022-11-18T03:13:56.191Z,99443.97
2022-11-18T03:16:32.106Z,99451.94
2022-11-18T03:19:23.741Z,99446.75
2022-11-18T03:22:11.723Z,99451.06
2022-11-18T03:24:43.020Z,99449.44
2022-11-18T03:27:15.874Z,99460.66
2022-11-18T03:29:52.781Z,99434.28
2022-11-18T03:32:27.314Z,99459.09
2022-11-18T03:35:11.335Z,99457.53
2022-11-18T03:37:41.363Z,99458.25
2022-11-18T03:40:29.541Z,99449.13
2022-11-18T03:43:06.370Z,99470.50
2022-11-18T03:45:57.273Z,99470.69
2022-11-18T03:48:28.429Z,99479.25
2022-11-18T03:51:02.374Z,99475.84
2022-11-18T03:53:32.533Z,99482.81
2022-11-18T03:56:12.786Z,99480.38
2022-11-18T03:59:00.311Z,99486.41
2022-11-18T04:01:41.479Z,99483.09
2022-11-18T04:04:08.905Z,99473.03
2022-11-18T04:06:41.994Z,99499.44
2022-11-18T04:09:15.654Z,99501.28
2022-11-18T04:12:02.589Z,99503.16
2022-11-18T04:14:31.926Z,99504.00
2022-11-18T04:16:58.561Z,99504.13
2022-11-18T04:19:25.266Z,99482.19
2022-11-18T04:21:51.732Z,99520.78
2022-11-18T04:24:18.214Z,99525.13
2022-11-18T04:26:44.733Z,99521.81
2022-11-18T04:29:11.247Z,99523.41
2022-11-18T04:31:37.690Z,99526.88
2022-11-18T04:34:04.224Z,99532.06
2022-11-18T04:36:30.690Z,99514.38
2022-11-18T04:38:57.133Z,99536.44
2022-11-18T04:41:43.552Z,99541.69
2022-11-18T04:44:13.319Z,99542.44
2022-11-18T04:46:43.770Z,99518.75
2022-11-18T04:49:12.613Z,99544.28
2022-11-18T04:51:40.017Z,99546.81
2022-11-18T04:54:07.204Z,99555.56
2022-11-18T04:56:33.788Z,99553.06
2022-11-18T04:59:01.853Z,99568.38
2022-11-18T05:01:47.456Z,99563.31
2022-11-18T05:04:35.325Z,99574.41
2022-11-18T05:07:22.260Z,99570.13
2022-11-18T05:09:48.843Z,99576.22
2022-11-18T05:12:34.351Z,99587.25
2022-11-18T05:15:01.537Z,99585.63
2022-11-18T05:17:28.389Z,99589.00
2022-11-18T05:19:54.980Z,99600.22
2022-11-18T05:22:21.666Z,99593.34
2022-11-18T05:24:48.198Z,99590.75
2022-11-18T05:27:15.193Z,99593.34
2022-11-18T05:29:41.790Z,99606.13
2022-11-18T05:32:08.711Z,99599.34
2022-11-18T05:34:35.478Z,99609.63
2022-11-18T05:37:02.041Z,99601.13
2022-11-18T05:39:28.501Z,99611.47
2022-11-18T05:42:13.639Z,99614.97
2022-11-18T05:44:40.114Z,99615.97
2022-11-18T05:47:06.638Z,99618.56
2022-11-18T05:49:33.138Z,99625.41
2022-11-18T05:51:59.634Z,99623.78
2022-11-18T05:54:27.029Z,99628.91
2022-11-18T05:56:53.549Z,99623.88
2022-11-18T05:59:20.769Z,99627.38
2022-11-18T06:01:47.405Z,99651.34
2022-11-18T06:04:20.341Z,99656.56
2022-11-18T06:06:49.101Z,99625.16
2022-11-18T06:09:20.745Z,99655.03
2022-11-18T06:11:52.782Z,99672.22
2022-11-18T06:14:26.317Z,99669.81
2022-11-18T06:16:58.532Z,99666.41
2022-11-18T06:19:25.887Z,99672.41
2022-11-18T06:21:52.771Z,99677.59
2022-11-18T06:24:19.545Z,99676.06
2022-11-18T06:26:47.390Z,99681.19
2022-11-18T06:29:19.448Z,99689.69
2022-11-18T06:31:48.122Z,99702.66
2022-11-18T06:34:14.601Z,99698.50
2022-11-18T06:36:41.121Z,99701.25
2022-11-18T06:39:07.989Z,99719.22
2022-11-18T06:41:34.553Z,99719.38
2022-11-18T06:44:01.629Z,99734.81
2022-11-18T06:46:46.777Z,99745.25
2022-11-18T06:49:13.573Z,99737.63
2022-11-18T06:51:40.342Z,99748.88
2022-11-18T06:54:10.760Z,99754.03
2022-11-18T06:56:37.779Z,99720.03
2022-11-18T06:59:04.649Z,99761.00
2022-11-18T07:01:34.872Z,99732.13
2022-11-18T07:04:02.439Z,99707.41
2022-11-18T07:06:31.544Z,99769.69
2022-11-18T07:09:00.258Z,99767.22
2022-11-18T07:11:26.998Z,99771.50
2022-11-18T07:13:54.018Z,99753.63
2022-11-18T07:16:23.446Z,99756.28
2022-11-18T07:18:51.622Z,99791.22
2022-11-18T07:21:20.738Z,99790.50
2022-11-18T07:23:47.596Z,99788.00
2022-11-18T07:26:14.784Z,99778.72
2022-11-18T07:28:41.333Z,99780.44
2022-11-18T07:31:10.595Z,99800.06
2022-11-18T07:33:38.313Z,99817.22
2022-11-18T07:36:07.399Z,99828.44
2022-11-18T07:38:34.441Z,99840.44
2022-11-18T07:41:09.627Z,99835.41
2022-11-18T07:43:37.564Z,99841.38
2022-11-18T07:46:25.482Z,99855.22
2022-11-18T07:48:57.045Z,99857.75
2022-11-18T07:51:26.598Z,99871.59
2022-11-18T07:53:53.268Z,99867.34
2022-11-18T07:56:20.765Z,99880.22
2022-11-18T07:58:47.668Z,99847.88
2022-11-18T08:01:19.335Z,99879.44
2022-11-18T08:03:46.851Z,99880.22
2022-11-18T08:06:15.418Z,99887.13
2022-11-18T08:08:42.357Z,99902.59
2022-11-18T08:11:11.702Z,99888.75
2022-11-18T08:13:38.213Z,99906.72
2022-11-18T08:16:12.193Z,99898.94
2022-11-18T08:18:38.672Z,99877.63
2022-11-18T08:21:05.679Z,99919.47
2022-11-18T08:23:36.086Z,99904.84
2022-11-18T08:26:15.319Z,99918.50
2022-11-18T08:28:43.640Z,99905.59
2022-11-18T08:31:16.919Z,99920.16
2022-11-18T08:33:43.665Z,99922.72
2022-11-18T08:36:14.636Z,99926.88
2022-11-18T08:38:41.163Z,99920.75
2022-11-18T08:41:07.765Z,99932.72
2022-11-18T08:43:37.135Z,99936.06
2022-11-18T08:46:03.703Z,99938.53
2022-11-18T08:48:30.382Z,99943.63
2022-11-18T08:50:59.018Z,99952.16
2022-11-18T08:53:25.552Z,99948.72
2022-11-18T08:55:59.243Z,99952.97
2022-11-18T08:58:26.917Z,99960.59
2022-11-18T09:00:53.852Z,99958.00
2022-11-18T09:03:20.468Z,99956.19
2022-11-18T09:05:47.849Z,99968.13
2022-11-18T09:08:15.394Z,99970.72
2022-11-18T09:10:42.407Z,99977.41
2022-11-18T09:13:39.984Z,99984.25
2022-11-18T09:15:58.503Z,99977.25
2022-11-18T09:18:24.966Z,99981.41
2022-11-18T09:20:59.554Z,99975.25
2022-11-18T09:23:26.468Z,99986.34
2022-11-18T09:26:00.436Z,99989.69
2022-11-18T09:28:27.024Z,99974.13
2022-11-18T09:30:53.553Z,99997.19
2022-11-18T09:33:20.739Z,100001.31
2022-11-18T09:35:47.959Z,100004.66
2022-11-18T09:38:14.965Z,99999.44
2022-11-18T09:40:54.103Z,100007.91
2022-11-18T09:43:46.617Z,100012.09
2022-11-18T09:46:26.377Z,100024.81
2022-11-18T09:49:11.707Z,100019.47
2022-11-18T09:51:50.270Z,100022.78
2022-11-18T09:54:23.585Z,100032.09
2022-11-18T09:56:52.181Z,100034.47
2022-11-18T09:59:24.165Z,100029.13
2022-11-18T10:01:53.006Z,100046.16
2022-11-18T10:04:21.916Z,100045.88
2022-11-18T10:06:50.813Z,100051.75
2022-11-18T10:09:30.239Z,100062.72
2022-11-18T10:12:08.419Z,100060.63
2022-11-18T10:14:53.465Z,100061.13
2022-11-18T10:17:44.443Z,100070.31
2022-11-18T10:20:16.866Z,100075.06
2022-11-18T10:23:03.034Z,100076.47
2022-11-18T10:25:29.531Z,100069.28
2022-11-18T10:27:56.784Z,100052.88
2022-11-18T10:30:25.763Z,100082.47
2022-11-18T10:33:04.930Z,100071.09
2022-11-18T10:35:36.866Z,100087.84
2022-11-18T10:38:16.095Z,100085.78
2022-11-18T10:41:20.475Z,100096.59
2022-11-18T10:43:52.483Z,100099.09
2022-11-18T10:46:18.945Z,100100.47
2022-11-18T10:48:45.779Z,100099.09
2022-11-18T10:51:25.000Z,100088.31
2022-11-18T10:53:51.606Z,100099.06
2022-11-18T10:56:18.294Z,100104.47
2022-11-18T10:58:51.729Z,100080.94
2022-11-18T11:01:26.508Z,100100.28
2022-11-18T11:04:22.555Z,100110.13
2022-11-18T11:06:49.040Z,100107.34
2022-11-18T11:09:15.536Z,100118.88
2022-11-18T11:11:56.009Z,100114.00
2022-11-18T11:14:30.216Z,100114.97
2022-11-18T11:17:02.575Z,100114.59
2022-11-18T11:20:10.483Z,100116.91
2022-11-18T11:22:37.019Z,100084.34
2022-11-18T11:25:12.926Z,100126.28
2022-11-18T11:30:57.053Z,100119.88
2022-11-18T11:33:48.459Z,100128.19
2022-11-18T11:36:51.825Z,100123.69
2022-11-18T11:39:24.273Z,100130.41
2022-11-18T11:42:09.869Z,100105.50
2022-11-18T11:44:42.095Z,100126.56
2022-11-18T11:47:36.481Z,100129.44
2022-11-18T11:50:31.637Z,100122.25
2022-11-18T11:53:25.941Z,100105.13
2022-11-18T11:56:10.976Z,100131.44
2022-11-18T11:58:46.371Z,100137.44
2022-11-18T12:01:22.516Z,100140.97
2022-11-18T12:03:56.560Z,100137.44
2022-11-18T12:06:23.021Z,100145.09
2022-11-18T12:09:28.461Z,100149.22
2022-11-18T12:12:35.923Z,100154.81
2022-11-18T12:15:16.579Z,100152.59
2022-11-18T12:17:50.540Z,100149.56
2022-11-18T12:20:35.741Z,100152.56
2022-11-18T12:23:12.795Z,100160.84
2022-11-18T12:25:48.272Z,100154.41
2022-11-18T12:28:28.410Z,100157.25
2022-11-18T12:31:19.891Z,100174.78
2022-11-18T12:34:00.120Z,100169.03
2022-11-18T12:36:28.198Z,100174.75
2022-11-18T12:38:55.693Z,100178.25
2022-11-18T12:41:59.089Z,100184.41
2022-11-18T12:44:27.356Z,100185.59
2022-11-18T12:47:01.626Z,100182.34
2022-11-18T12:49:28.121Z,100192.06
2022-11-18T12:51:55.561Z,100187.69
2022-11-18T12:54:27.069Z,100169.84
2022-11-18T12:56:55.349Z,100184.47
2022-11-18T12:59:34.806Z,100196.91
2022-11-18T13:02:16.789Z,100201.41
2022-11-18T13:04:47.614Z,100189.56
2022-11-18T13:07:36.998Z,100205.72
2022-11-18T13:10:19.220Z,100201.56
2022-11-18T13:12:45.882Z,100197.47
2022-11-18T13:15:31.249Z,100196.72
2022-11-18T13:18:12.158Z,100215.94
2022-11-18T13:20:40.657Z,100211.66
2022-11-18T13:23:29.022Z,100221.41
2022-11-18T13:26:04.596Z,100225.28
2022-11-18T13:28:37.168Z,100230.88
2022-11-18T13:31:08.334Z,100229.41
2022-11-18T13:33:39.212Z,100219.41
2022-11-18T13:36:23.210Z,100236.16
2022-11-18T13:38:57.344Z,100240.56
2022-11-18T13:41:24.863Z,100231.94
2022-11-18T13:43:54.043Z,100235.31
2022-11-18T13:46:22.760Z,100194.50
2022-11-18T13:48:55.596Z,100233.59
2022-11-18T13:51:23.242Z,100247.25
2022-11-18T13:53:50.339Z,100252.47
2022-11-18T13:56:22.889Z,100229.69
2022-11-18T14:01:36.211Z,100259.66
2022-11-18T14:04:05.883Z,100251.25
2022-11-18T14:06:38.373Z,100263.41
2022-11-18T14:09:07.922Z,100268.50
2022-11-18T14:11:40.705Z,100277.19
2022-11-18T14:14:09.937Z,100250.84
2022-11-18T14:16:42.011Z,100283.44
2022-11-18T14:19:30.685Z,100245.00
2022-11-18T14:22:13.186Z,100280.06
2022-11-18T14:24:41.963Z,100280.19
2022-11-18T14:27:28.196Z,100282.91
2022-11-18T14:29:54.648Z,100288.25
2022-11-18T14:32:21.531Z,100276.91
2022-11-18T14:34:58.636Z,100277.97
2022-11-18T14:37:25.313Z,100292.56
2022-11-18T14:39:56.989Z,100256.09
2022-11-18T14:42:24.661Z,100294.47
2022-11-18T14:44:51.195Z,100256.22
2022-11-18T14:47:27.803Z,100296.41
2022-11-18T14:49:54.250Z,100293.91
2022-11-18T14:52:20.813Z,100292.31
2022-11-18T14:54:47.563Z,100285.88
2022-11-18T14:57:17.140Z,100310.13
2022-11-18T14:59:43.655Z,100291.44
2022-11-18T15:02:17.693Z,100318.91
2022-11-18T15:04:44.553Z,100329.28
2022-11-18T15:07:22.800Z,100328.50
2022-11-18T15:09:50.675Z,100329.56
2022-11-18T15:12:17.247Z,100340.81
2022-11-18T15:14:43.670Z,100339.31
2022-11-18T15:17:12.457Z,100342.78
2022-11-18T15:19:40.673Z,100348.00
2022-11-18T15:22:07.797Z,100357.56
2022-11-18T15:24:34.288Z,100355.97
2022-11-18T15:27:05.047Z,100364.69
2022-11-18T15:29:31.591Z,100363.19
2022-11-18T15:31:58.053Z,100370.19
2022-11-18T15:34:24.781Z,100371.09
2022-11-18T15:36:51.541Z,100377.41
2022-11-18T15:39:18.064Z,100379.13
2022-11-18T15:41:44.553Z,100392.28
2022-11-18T15:44:11.758Z,100395.00
2022-11-18T15:46:38.708Z,100401.13
2022-11-18T15:49:07.333Z,100396.03
2022-11-18T15:51:36.045Z,100394.34
2022-11-18T15:54:02.511Z,100403.13
2022-11-18T15:56:30.410Z,100398.09
2022-11-18T15:59:10.210Z,100404.09
2022-11-18T16:01:39.189Z,100411.13
2022-11-18T16:04:07.315Z,100403.56
2022-11-18T16:06:33.887Z,100424.94
2022-11-18T16:09:00.801Z,100421.50
2022-11-18T16:11:47.592Z,100426.84
2022-11-18T16:14:17.061Z,100429.50
2022-11-18T16:16:45.341Z,100433.94
2022-11-18T16:19:15.379Z,100429.00
2022-11-18T16:21:46.291Z,100441.03
2022-11-18T16:24:16.910Z,100437.63
2022-11-18T16:26:43.895Z,100434.22
2022-11-18T16:29:12.403Z,100443.88
2022-11-18T16:31:39.856Z,100446.41
2022-11-18T16:34:23.635Z,100449.97
2022-11-18T16:36:54.918Z,100438.06
2022-11-18T16:39:25.002Z,100450.09
2022-11-18T16:41:53.954Z,100434.84
2022-11-18T16:44:20.779Z,100453.63
2022-11-18T16:46:49.874Z,100458.94
2022-11-18T16:49:18.604Z,100462.44
2022-11-18T16:51:50.666Z,100462.59
2022-11-18T16:54:29.017Z,100480.03
2022-11-18T16:56:57.882Z,100476.53
2022-11-18T16:59:28.166Z,100472.41
2022-11-18T17:01:56.702Z,100475.75
2022-11-18T17:04:24.522Z,100491.38
2022-11-18T17:06:51.279Z,100487.03
2022-11-18T17:09:23.302Z,100486.28
2022-11-18T17:11:50.939Z,100494.03
2022-11-18T17:14:17.506Z,100500.16
2022-11-18T17:16:44.250Z,100500.16
2022-11-18T17:19:16.680Z,100506.44
2022-11-18T17:21:44.123Z,100511.53
2022-11-18T17:24:12.951Z,100522.91
2022-11-18T17:26:40.131Z,100527.28
2022-11-18T17:29:06.599Z,100529.03
2022-11-18T17:31:33.730Z,100503.50
2022-11-18T17:34:00.226Z,100534.25
2022-11-18T17:36:27.726Z,100530.94
2022-11-18T17:38:56.214Z,100541.34
2022-11-18T17:41:43.366Z,100543.06
2022-11-18T17:44:12.183Z,100550.03
2022-11-18T17:46:39.295Z,100548.34
2022-11-18T17:49:10.658Z,100557.94
2022-11-18T17:51:37.274Z,100553.69
2022-11-18T17:54:03.843Z,100558.00
2022-11-18T17:56:30.420Z,100564.09
2022-11-18T17:58:56.892Z,100567.63
2022-11-18T18:01:23.898Z,100567.63
2022-11-18T18:03:50.633Z,100565.91
2022-11-18T18:06:20.144Z,100568.63
2022-11-18T18:08:46.879Z,100570.38
2022-11-18T18:11:15.970Z,100578.19
2022-11-18T18:14:01.335Z,100580.84
2022-11-18T18:16:29.771Z,100586.91
2022-11-18T18:18:57.640Z,100588.69
2022-11-18T18:21:24.181Z,100585.28
2022-11-18T18:23:50.836Z,100583.63
2022-11-18T18:26:17.614Z,100599.19
2022-11-18T18:28:44.980Z,100594.94
2022-11-18T18:31:13.941Z,100596.63
2022-11-18T18:33:41.049Z,100601.88
2022-11-18T18:36:10.045Z,100608.88
2022-11-18T18:38:38.083Z,100608.00
2022-11-18T18:41:09.735Z,100611.50
2022-11-18T18:43:36.366Z,100600.53
2022-11-18T18:46:23.955Z,100627.09
2022-11-18T18:48:50.744Z,100623.69
2022-11-18T18:51:17.785Z,100625.44
2022-11-18T18:53:44.303Z,100622.03
2022-11-18T18:56:11.092Z,100628.94
2022-11-18T18:58:37.577Z,100628.09
2022-11-18T19:01:09.469Z,100641.16
2022-11-18T19:03:36.153Z,100640.25
2022-11-18T19:06:47.912Z,100625.06
2022-11-18T19:09:06.797Z,100622.41
2022-11-18T19:11:52.445Z,100653.50
2022-11-18T19:14:19.687Z,100654.25
2022-11-18T19:16:47.986Z,100662.13
2022-11-18T19:19:40.177Z,100672.53
2022-11-18T19:22:07.880Z,100671.69
2022-11-18T19:27:21.048Z,100674.34
2022-11-18T19:29:47.837Z,100674.41
2022-11-18T19:32:15.154Z,100654.00
2022-11-18T19:34:41.827Z,100682.25
2022-11-18T19:37:08.406Z,100677.97
2022-11-18T19:39:35.334Z,100684.09
2022-11-18T19:42:02.049Z,100681.53
2022-11-18T19:44:28.600Z,100672.31
2022-11-18T19:46:55.099Z,100702.41
2022-11-18T19:49:22.062Z,100696.41
2022-11-18T19:51:48.841Z,100694.84
2022-11-18T19:54:15.304Z,100698.31
2022-11-18T19:56:41.760Z,100680.34
2022-11-18T19:59:08.213Z,100711.31
2022-11-18T20:01:34.695Z,100704.41
2022-11-18T20:04:03.038Z,100721.78
2022-11-18T20:06:29.938Z,100715.75
2022-11-18T20:08:57.150Z,100709.72
2022-11-18T20:11:24.290Z,100713.19
2022-11-18T20:13:51.075Z,100720.13
2022-11-18T20:16:23.429Z,100725.47
2022-11-18T20:18:54.832Z,100729.72
2022-11-18T20:21:22.606Z,100717.72
2022-11-18T20:24:00.542Z,100729.00
2022-11-18T20:26:30.688Z,100731.66
2022-11-18T20:28:57.944Z,100738.66
2022-11-18T20:31:25.617Z,100736.94
2022-11-18T20:33:54.001Z,100736.22
2022-11-18T20:36:27.508Z,100741.34
2022-11-18T20:38:56.783Z,100743.19
2022-11-18T20:41:24.970Z,100753.63
2022-11-18T20:43:51.588Z,100759.72
2022-11-18T20:46:21.318Z,100768.41
2022-11-18T20:48:48.893Z,100778.91
2022-11-18T20:51:25.741Z,100774.66
2022-11-18T20:53:53.680Z,100774.72
2022-11-18T20:56:22.343Z,100781.69
2022-11-18T20:58:49.082Z,100784.34
2022-11-18T21:01:18.706Z,100787.03
2022-11-18T21:03:52.608Z,100788.91
2022-11-18T21:06:19.407Z,100786.38
2022-11-18T21:08:45.849Z,100787.34
2022-11-18T21:11:13.702Z,100796.03
2022-11-18T21:13:59.953Z,100797.84
2022-11-18T21:16:27.522Z,100796.16
2022-11-18T21:18:54.345Z,100794.53
2022-11-18T21:21:39.449Z,100801.50
2022-11-18T21:24:06.444Z,100797.28
2022-11-18T21:26:34.964Z,100801.66
2022-11-18T21:29:03.587Z,100814.63
2022-11-18T21:31:30.318Z,100805.22
2022-11-18T21:33:57.341Z,100811.25
2022-11-18T21:36:25.628Z,100819.13
2022-11-18T21:38:53.033Z,100818.28
2022-11-18T21:41:20.305Z,100833.00
2022-11-18T21:46:38.796Z,100835.75
2022-11-18T21:49:05.944Z,100813.47
2022-11-18T21:51:33.622Z,100843.59
2022-11-18T21:54:01.226Z,100834.16
2022-11-18T21:56:31.119Z,100845.41
2022-11-18T21:59:00.434Z,100830.84
2022-11-18T22:01:31.824Z,100848.06
2022-11-18T22:04:00.217Z,100853.31
2022-11-18T22:06:32.788Z,100856.78
2022-11-18T22:09:00.464Z,100850.75
2022-11-18T22:11:28.061Z,100830.16
2022-11-18T22:13:54.561Z,100830.19
2022-11-18T22:16:22.872Z,100856.91
2022-11-18T22:18:56.992Z,100861.25
2022-11-18T22:21:28.856Z,100872.47
2022-11-18T22:24:00.023Z,100879.38
2022-11-18T22:26:27.152Z,100885.41
2022-11-18T22:28:55.532Z,100888.81
2022-11-18T22:31:23.814Z,100898.34
2022-11-18T22:33:51.728Z,100902.63
2022-11-18T22:36:20.524Z,100896.56
2022-11-18T22:38:47.727Z,100899.13
2022-11-18T22:41:35.469Z,100897.38
2022-11-18T22:44:07.282Z,100902.56
2022-11-18T22:46:34.670Z,100903.38
2022-11-18T22:49:01.395Z,100901.63
2022-11-18T22:51:27.893Z,100889.59
2022-11-18T22:54:15.944Z,100897.31
2022-11-18T22:56:40.816Z,100904.22
2022-11-18T22:59:07.588Z,100900.78
2022-11-18T23:01:34.016Z,100905.06
2022-11-18T23:04:00.457Z,100886.16
2022-11-18T23:06:26.896Z,100904.16
2022-11-18T23:08:53.367Z,100904.16
2022-11-18T23:11:39.374Z,100906.75
2022-11-18T23:14:08.439Z,100918.00
2022-11-18T23:16:38.923Z,100918.00
2022-11-18T23:19:08.102Z,100930.09
2022-11-18T23:21:35.118Z,100929.22
2022-11-18T23:24:02.383Z,100930.13
2022-11-18T23:26:29.337Z,100926.69
2022-11-18T23:28:56.257Z,100933.59
2022-11-18T23:31:25.030Z,100938.78
2022-11-18T23:33:51.666Z,100949.16
2022-11-18T23:36:19.528Z,100946.56
2022-11-18T23:38:47.109Z,100951.75
2022-11-18T23:41:16.374Z,100945.75
2022-11-18T23:43:44.981Z,100954.44
2022-11-18T23:46:11.408Z,100961.34
2022-11-18T23:48:40.125Z,100935.53
2022-11-18T23:51:10.900Z,100968.25
2022-11-18T23:53:38.023Z,100958.72
2022-11-18T23:56:10.751Z,100969.97
2022-11-18T23:58:39.012Z,100974.28
